This is the latest recevied weather packets stored in our database for station/object SQ5LTL-2. If no packets are shown the sender has not sent any weather packets the latest 10 day(s).
| Time | Temp. | Humidity | Pressure | Rain* | Wind** | Luminosity | Snow |
|---|---|---|---|---|---|---|---|
| 1777870833 | 12.78° C | 64% | 1016.4 hPa | 0 mm | - | 89 W/m² | - |
| 1777870531 | 12.22° C | 64% | 1016.3 hPa | 0 mm | - | 83 W/m² | - |
| 1777870230 | 12.22° C | 65% | 1016.3 hPa | 0 mm | - | 78 W/m² | - |
| 1777869929 | 11.67° C | 65% | 1016.4 hPa | 0 mm | - | 72 W/m² | - |
| 1777869627 | 11.67° C | 66% | 1016.3 hPa | 0 mm | - | 67 W/m² | - |
| 1777869326 | 11.11° C | 67% | 1016.2 hPa | 0 mm | - | 61 W/m² | - |
| 1777869024 | 11.11° C | 67% | 1016.3 hPa | 0 mm | - | 56 W/m² | - |
| 1777868722 | 11.11° C | 68% | 1016.2 hPa | 0 mm | - | 51 W/m² | - |
| 1777868421 | 10.56° C | 69% | 1016.1 hPa | 0 mm | - | 47 W/m² | - |
| 1777868120 | 10.56° C | 70% | 1016.2 hPa | 0 mm | - | 43 W/m² | - |
| 1777867818 | 10° C | 70% | 1016.1 hPa | 0 mm | - | 39 W/m² | - |
| 1777867517 | 10° C | 70% | 1016.1 hPa | 0 mm | - | 35 W/m² | - |
| 1777867236 | 9.44° C | 71% | 1016 hPa | 0 mm | - | 32 W/m² | - |
| 1777866935 | 8.89° C | 73% | 1016 hPa | 0 mm | - | 28 W/m² | - |
| 1777866332 | 8.89° C | 74% | 1016 hPa | 0 mm | - | 22 W/m² | - |
| 1777866030 | 8.33° C | 75% | 1016 hPa | 0 mm | - | 19 W/m² | - |
| 1777865728 | 8.33° C | 75% | 1016 hPa | 0 mm | - | 17 W/m² | - |
| 1777865427 | 7.78° C | 77% | 1016.1 hPa | 0 mm | - | 14 W/m² | - |
| 1777865125 | 7.78° C | 76% | 1016.1 hPa | 0 mm | - | 12 W/m² | - |
| 1777864221 | 8.89° C | 72% | 1016.1 hPa | 0 mm | - | 5 W/m² | - |
| 1777863920 | 8.89° C | 71% | 1016 hPa | 0 mm | - | 4 W/m² | - |
| 1777847721 | 13.89° C | 55% | 1016.2 hPa | 0 mm | - | 0 W/m² | - |
| 1777847118 | 13.89° C | 55% | 1016.3 hPa | 0 mm | - | 0 W/m² | - |
| 1777846535 | 14.44° C | 55% | 1016.2 hPa | 0 mm | - | 0 W/m² | - |
| 1777845933 | 14.44° C | 55% | 1016.2 hPa | 0 mm | - | 0 W/m² | - |
* Rain latest hour (hover to see other rain measurements)
** Current wind speed in m/s (hover to see current wind gust speed)